sensor_id;sensor_type;location;lat;lon;timestamp;P1;durP1;ratioP1;P2;durP2;ratioP2
20619;SDS011;10469;42.720;23.252;2023-06-26T00:00:25;25.75;;;18.90;;
20619;SDS011;10469;42.720;23.252;2023-06-26T00:02:51;22.23;;;17.98;;
20619;SDS011;10469;42.720;23.252;2023-06-26T00:05:16;21.92;;;18.33;;
20619;SDS011;10469;42.720;23.252;2023-06-26T00:07:42;20.98;;;17.67;;
20619;SDS011;10469;42.720;23.252;2023-06-26T00:10:08;22.10;;;16.98;;
20619;SDS011;10469;42.720;23.252;2023-06-26T00:12:33;19.98;;;16.52;;
20619;SDS011;10469;42.720;23.252;2023-06-26T00:14:59;28.67;;;18.08;;
20619;SDS011;10469;42.720;23.252;2023-06-26T00:17:25;22.35;;;17.88;;
20619;SDS011;10469;42.720;23.252;2023-06-26T00:19:50;21.77;;;16.45;;
20619;SDS011;10469;42.720;23.252;2023-06-26T00:22:17;21.38;;;16.88;;
20619;SDS011;10469;42.720;23.252;2023-06-26T00:24:43;19.73;;;16.60;;
20619;SDS011;10469;42.720;23.252;2023-06-26T00:27:10;19.88;;;16.83;;
20619;SDS011;10469;42.720;23.252;2023-06-26T00:29:35;24.02;;;17.73;;
20619;SDS011;10469;42.720;23.252;2023-06-26T00:32:01;18.88;;;15.77;;
20619;SDS011;10469;42.720;23.252;2023-06-26T00:34:26;18.27;;;15.55;;
20619;SDS011;10469;42.720;23.252;2023-06-26T00:36:52;21.45;;;15.88;;
20619;SDS011;10469;42.720;23.252;2023-06-26T00:39:17;24.02;;;16.25;;
20619;SDS011;10469;42.720;23.252;2023-06-26T00:41:43;18.08;;;15.85;;
20619;SDS011;10469;42.720;23.252;2023-06-26T00:44:08;20.08;;;16.08;;
20619;SDS011;10469;42.720;23.252;2023-06-26T00:46:34;21.77;;;15.43;;
20619;SDS011;10469;42.720;23.252;2023-06-26T00:49:00;19.30;;;14.93;;
20619;SDS011;10469;42.720;23.252;2023-06-26T00:51:28;20.08;;;15.73;;
20619;SDS011;10469;42.720;23.252;2023-06-26T00:53:55;18.75;;;14.43;;
20619;SDS011;10469;42.720;23.252;2023-06-26T00:56:22;17.42;;;14.38;;
20619;SDS011;10469;42.720;23.252;2023-06-26T00:58:48;19.77;;;15.13;;
20619;SDS011;10469;42.720;23.252;2023-06-26T01:01:14;21.15;;;14.65;;
20619;SDS011;10469;42.720;23.252;2023-06-26T01:03:42;18.05;;;14.23;;
20619;SDS011;10469;42.720;23.252;2023-06-26T01:06:10;18.48;;;13.65;;
20619;SDS011;10469;42.720;23.252;2023-06-26T01:08:41;15.35;;;13.75;;
20619;SDS011;10469;42.720;23.252;2023-06-26T01:11:08;18.42;;;13.25;;
20619;SDS011;10469;42.720;23.252;2023-06-26T01:13:34;22.45;;;13.93;;
20619;SDS011;10469;42.720;23.252;2023-06-26T01:16:01;16.77;;;14.35;;
20619;SDS011;10469;42.720;23.252;2023-06-26T01:18:27;15.50;;;13.38;;
20619;SDS011;10469;42.720;23.252;2023-06-26T01:20:55;18.60;;;13.77;;
20619;SDS011;10469;42.720;23.252;2023-06-26T01:23:35;17.75;;;14.20;;
20619;SDS011;10469;42.720;23.252;2023-06-26T01:26:14;16.73;;;14.63;;
20619;SDS011;10469;42.720;23.252;2023-06-26T01:28:43;17.08;;;14.25;;
20619;SDS011;10469;42.720;23.252;2023-06-26T01:31:10;17.80;;;15.10;;
20619;SDS011;10469;42.720;23.252;2023-06-26T01:33:37;19.27;;;15.20;;
20619;SDS011;10469;42.720;23.252;2023-06-26T01:36:04;21.45;;;15.23;;
20619;SDS011;10469;42.720;23.252;2023-06-26T01:38:30;20.75;;;15.30;;
20619;SDS011;10469;42.720;23.252;2023-06-26T01:40:55;18.55;;;14.65;;
20619;SDS011;10469;42.720;23.252;2023-06-26T01:43:24;18.13;;;15.05;;
20619;SDS011;10469;42.720;23.252;2023-06-26T01:46:27;18.60;;;14.95;;
20619;SDS011;10469;42.720;23.252;2023-06-26T01:49:06;17.48;;;15.45;;
20619;SDS011;10469;42.720;23.252;2023-06-26T01:52:00;17.70;;;14.15;;
20619;SDS011;10469;42.720;23.252;2023-06-26T01:54:35;19.27;;;14.18;;
20619;SDS011;10469;42.720;23.252;2023-06-26T01:57:04;16.90;;;13.70;;
20619;SDS011;10469;42.720;23.252;2023-06-26T01:59:33;20.40;;;14.43;;
20619;SDS011;10469;42.720;23.252;2023-06-26T02:02:02;20.83;;;15.23;;
20619;SDS011;10469;42.720;23.252;2023-06-26T02:06:58;17.30;;;13.98;;
20619;SDS011;10469;42.720;23.252;2023-06-26T02:09:23;18.17;;;14.77;;
20619;SDS011;10469;42.720;23.252;2023-06-26T02:11:49;21.33;;;15.57;;
20619;SDS011;10469;42.720;23.252;2023-06-26T02:14:14;18.08;;;15.70;;
20619;SDS011;10469;42.720;23.252;2023-06-26T02:16:40;21.02;;;16.27;;
20619;SDS011;10469;42.720;23.252;2023-06-26T02:19:05;28.05;;;16.48;;
20619;SDS011;10469;42.720;23.252;2023-06-26T02:21:31;21.23;;;16.90;;
20619;SDS011;10469;42.720;23.252;2023-06-26T02:23:56;21.42;;;17.25;;
20619;SDS011;10469;42.720;23.252;2023-06-26T02:26:22;20.02;;;17.88;;
20619;SDS011;10469;42.720;23.252;2023-06-26T02:28:47;24.52;;;17.90;;
20619;SDS011;10469;42.720;23.252;2023-06-26T02:31:13;24.15;;;18.75;;
20619;SDS011;10469;42.720;23.252;2023-06-26T02:33:38;27.23;;;18.95;;
20619;SDS011;10469;42.720;23.252;2023-06-26T02:36:04;23.88;;;20.25;;
20619;SDS011;10469;42.720;23.252;2023-06-26T02:38:30;23.10;;;19.80;;
20619;SDS011;10469;42.720;23.252;2023-06-26T02:40:55;27.05;;;20.25;;
20619;SDS011;10469;42.720;23.252;2023-06-26T02:43:21;27.25;;;19.13;;
20619;SDS011;10469;42.720;23.252;2023-06-26T02:45:46;24.75;;;19.95;;
20619;SDS011;10469;42.720;23.252;2023-06-26T02:48:12;21.88;;;19.50;;
20619;SDS011;10469;42.720;23.252;2023-06-26T02:50:37;27.08;;;20.67;;
20619;SDS011;10469;42.720;23.252;2023-06-26T02:53:02;26.73;;;20.35;;
20619;SDS011;10469;42.720;23.252;2023-06-26T02:55:28;24.80;;;20.27;;
20619;SDS011;10469;42.720;23.252;2023-06-26T02:57:53;27.42;;;20.83;;
20619;SDS011;10469;42.720;23.252;2023-06-26T03:00:19;28.75;;;21.65;;
20619;SDS011;10469;42.720;23.252;2023-06-26T03:02:44;26.73;;;20.92;;
20619;SDS011;10469;42.720;23.252;2023-06-26T03:05:10;26.23;;;21.27;;
20619;SDS011;10469;42.720;23.252;2023-06-26T03:07:38;30.75;;;22.55;;
20619;SDS011;10469;42.720;23.252;2023-06-26T03:10:04;28.85;;;21.40;;
20619;SDS011;10469;42.720;23.252;2023-06-26T03:12:30;24.15;;;21.23;;
20619;SDS011;10469;42.720;23.252;2023-06-26T03:14:56;26.52;;;22.20;;
20619;SDS011;10469;42.720;23.252;2023-06-26T03:17:21;34.83;;;22.73;;
20619;SDS011;10469;42.720;23.252;2023-06-26T03:19:46;25.95;;;23.20;;
20619;SDS011;10469;42.720;23.252;2023-06-26T03:22:12;27.02;;;22.85;;
20619;SDS011;10469;42.720;23.252;2023-06-26T03:24:37;29.05;;;22.95;;
20619;SDS011;10469;42.720;23.252;2023-06-26T03:27:03;28.42;;;23.00;;
20619;SDS011;10469;42.720;23.252;2023-06-26T03:29:29;30.70;;;23.30;;
20619;SDS011;10469;42.720;23.252;2023-06-26T03:31:55;25.80;;;22.80;;
20619;SDS011;10469;42.720;23.252;2023-06-26T03:34:20;34.13;;;23.83;;
20619;SDS011;10469;42.720;23.252;2023-06-26T03:36:46;34.42;;;24.05;;
20619;SDS011;10469;42.720;23.252;2023-06-26T03:39:12;31.13;;;23.92;;
20619;SDS011;10469;42.720;23.252;2023-06-26T03:41:37;26.45;;;22.75;;
20619;SDS011;10469;42.720;23.252;2023-06-26T03:44:03;27.92;;;23.30;;
20619;SDS011;10469;42.720;23.252;2023-06-26T03:46:29;29.83;;;22.95;;
20619;SDS011;10469;42.720;23.252;2023-06-26T03:48:54;29.40;;;22.80;;
20619;SDS011;10469;42.720;23.252;2023-06-26T03:51:20;26.83;;;22.50;;
20619;SDS011;10469;42.720;23.252;2023-06-26T03:53:45;28.85;;;23.02;;
20619;SDS011;10469;42.720;23.252;2023-06-26T03:56:11;34.25;;;23.00;;
20619;SDS011;10469;42.720;23.252;2023-06-26T03:58:36;27.45;;;23.13;;
20619;SDS011;10469;42.720;23.252;2023-06-26T04:01:02;25.50;;;22.20;;
20619;SDS011;10469;42.720;23.252;2023-06-26T04:03:27;23.92;;;21.42;;
20619;SDS011;10469;42.720;23.252;2023-06-26T04:05:53;26.27;;;22.58;;
20619;SDS011;10469;42.720;23.252;2023-06-26T04:08:19;24.63;;;21.13;;
20619;SDS011;10469;42.720;23.252;2023-06-26T04:10:45;29.40;;;21.48;;
20619;SDS011;10469;42.720;23.252;2023-06-26T04:13:13;23.88;;;21.38;;
20619;SDS011;10469;42.720;23.252;2023-06-26T04:15:39;27.02;;;20.55;;
20619;SDS011;10469;42.720;23.252;2023-06-26T04:18:05;25.08;;;19.70;;
20619;SDS011;10469;42.720;23.252;2023-06-26T04:20:30;24.35;;;20.60;;
20619;SDS011;10469;42.720;23.252;2023-06-26T04:22:56;25.92;;;20.65;;
20619;SDS011;10469;42.720;23.252;2023-06-26T04:25:21;28.23;;;20.05;;
20619;SDS011;10469;42.720;23.252;2023-06-26T04:27:47;23.05;;;18.75;;
20619;SDS011;10469;42.720;23.252;2023-06-26T04:30:12;22.15;;;17.73;;
20619;SDS011;10469;42.720;23.252;2023-06-26T04:32:38;21.05;;;17.85;;
20619;SDS011;10469;42.720;23.252;2023-06-26T04:35:04;21.55;;;16.83;;
20619;SDS011;10469;42.720;23.252;2023-06-26T04:37:29;19.10;;;17.02;;
20619;SDS011;10469;42.720;23.252;2023-06-26T04:39:55;20.40;;;17.33;;
20619;SDS011;10469;42.720;23.252;2023-06-26T04:42:20;22.35;;;16.60;;
20619;SDS011;10469;42.720;23.252;2023-06-26T04:44:47;28.52;;;18.05;;
20619;SDS011;10469;42.720;23.252;2023-06-26T04:47:12;18.85;;;16.85;;
20619;SDS011;10469;42.720;23.252;2023-06-26T04:49:40;21.27;;;16.67;;
20619;SDS011;10469;42.720;23.252;2023-06-26T04:52:08;21.58;;;17.00;;
20619;SDS011;10469;42.720;23.252;2023-06-26T04:54:33;20.33;;;16.38;;
20619;SDS011;10469;42.720;23.252;2023-06-26T04:56:59;20.52;;;16.45;;
20619;SDS011;10469;42.720;23.252;2023-06-26T04:59:26;21.75;;;16.92;;
20619;SDS011;10469;42.720;23.252;2023-06-26T05:01:51;17.88;;;15.70;;
20619;SDS011;10469;42.720;23.252;2023-06-26T05:04:17;17.88;;;15.98;;
20619;SDS011;10469;42.720;23.252;2023-06-26T05:06:43;22.60;;;16.85;;
20619;SDS011;10469;42.720;23.252;2023-06-26T05:09:08;22.52;;;16.48;;
20619;SDS011;10469;42.720;23.252;2023-06-26T05:11:35;21.55;;;16.70;;
20619;SDS011;10469;42.720;23.252;2023-06-26T05:14:01;20.63;;;15.95;;
20619;SDS011;10469;42.720;23.252;2023-06-26T05:16:27;19.63;;;16.08;;
20619;SDS011;10469;42.720;23.252;2023-06-26T05:18:52;18.08;;;15.88;;
20619;SDS011;10469;42.720;23.252;2023-06-26T05:21:19;24.27;;;16.48;;
20619;SDS011;10469;42.720;23.252;2023-06-26T05:23:45;27.60;;;16.38;;
20619;SDS011;10469;42.720;23.252;2023-06-26T05:26:12;18.73;;;15.45;;
20619;SDS011;10469;42.720;23.252;2023-06-26T05:28:38;19.17;;;15.57;;
20619;SDS011;10469;42.720;23.252;2023-06-26T05:31:04;18.50;;;15.50;;
20619;SDS011;10469;42.720;23.252;2023-06-26T05:33:30;24.50;;;16.25;;
20619;SDS011;10469;42.720;23.252;2023-06-26T05:35:58;20.23;;;16.15;;
20619;SDS011;10469;42.720;23.252;2023-06-26T05:38:25;25.17;;;16.90;;
20619;SDS011;10469;42.720;23.252;2023-06-26T05:40:51;25.52;;;16.67;;
20619;SDS011;10469;42.720;23.252;2023-06-26T05:43:16;19.00;;;15.43;;
20619;SDS011;10469;42.720;23.252;2023-06-26T05:45:46;20.58;;;16.45;;
20619;SDS011;10469;42.720;23.252;2023-06-26T05:48:13;20.92;;;15.27;;
20619;SDS011;10469;42.720;23.252;2023-06-26T05:50:39;21.08;;;14.52;;
20619;SDS011;10469;42.720;23.252;2023-06-26T05:53:07;20.52;;;14.73;;
20619;SDS011;10469;42.720;23.252;2023-06-26T05:55:33;18.98;;;15.10;;
20619;SDS011;10469;42.720;23.252;2023-06-26T05:57:58;24.08;;;15.20;;
20619;SDS011;10469;42.720;23.252;2023-06-26T06:00:26;21.40;;;14.57;;
20619;SDS011;10469;42.720;23.252;2023-06-26T06:02:52;19.40;;;16.05;;
20619;SDS011;10469;42.720;23.252;2023-06-26T06:05:19;16.70;;;14.93;;
20619;SDS011;10469;42.720;23.252;2023-06-26T06:07:45;26.58;;;14.65;;
20619;SDS011;10469;42.720;23.252;2023-06-26T06:10:12;17.70;;;15.35;;
20619;SDS011;10469;42.720;23.252;2023-06-26T06:12:37;21.80;;;15.15;;
20619;SDS011;10469;42.720;23.252;2023-06-26T06:15:03;17.83;;;15.20;;
20619;SDS011;10469;42.720;23.252;2023-06-26T06:17:29;23.45;;;15.40;;
20619;SDS011;10469;42.720;23.252;2023-06-26T06:19:55;21.67;;;14.38;;
20619;SDS011;10469;42.720;23.252;2023-06-26T06:22:21;18.20;;;14.02;;
20619;SDS011;10469;42.720;23.252;2023-06-26T06:24:46;18.08;;;13.52;;
20619;SDS011;10469;42.720;23.252;2023-06-26T06:27:13;18.05;;;13.27;;
20619;SDS011;10469;42.720;23.252;2023-06-26T06:29:39;17.88;;;12.75;;
20619;SDS011;10469;42.720;23.252;2023-06-26T06:32:05;13.55;;;12.15;;
20619;SDS011;10469;42.720;23.252;2023-06-26T06:34:31;13.35;;;11.57;;
20619;SDS011;10469;42.720;23.252;2023-06-26T06:36:56;15.00;;;10.80;;
20619;SDS011;10469;42.720;23.252;2023-06-26T06:39:22;14.40;;;10.90;;
20619;SDS011;10469;42.720;23.252;2023-06-26T06:41:48;13.80;;;10.75;;
20619;SDS011;10469;42.720;23.252;2023-06-26T06:44:13;12.13;;;10.43;;
20619;SDS011;10469;42.720;23.252;2023-06-26T06:46:39;12.98;;;10.18;;
20619;SDS011;10469;42.720;23.252;2023-06-26T06:49:33;12.38;;;10.52;;
20619;SDS011;10469;42.720;23.252;2023-06-26T06:52:47;12.27;;;9.35;;
20619;SDS011;10469;42.720;23.252;2023-06-26T06:55:16;14.30;;;9.60;;
20619;SDS011;10469;42.720;23.252;2023-06-26T06:57:42;12.57;;;10.25;;
20619;SDS011;10469;42.720;23.252;2023-06-26T07:00:08;13.27;;;10.95;;
20619;SDS011;10469;42.720;23.252;2023-06-26T07:02:40;11.88;;;9.73;;
20619;SDS011;10469;42.720;23.252;2023-06-26T07:05:09;14.30;;;9.20;;
20619;SDS011;10469;42.720;23.252;2023-06-26T07:07:36;20.63;;;8.82;;
20619;SDS011;10469;42.720;23.252;2023-06-26T07:10:08;9.45;;;8.40;;
20619;SDS011;10469;42.720;23.252;2023-06-26T07:12:36;10.48;;;9.38;;
20619;SDS011;10469;42.720;23.252;2023-06-26T07:15:02;12.98;;;8.63;;
20619;SDS011;10469;42.720;23.252;2023-06-26T07:17:30;8.45;;;7.65;;
20619;SDS011;10469;42.720;23.252;2023-06-26T07:19:56;10.80;;;8.07;;
20619;SDS011;10469;42.720;23.252;2023-06-26T07:22:21;11.18;;;7.35;;
20619;SDS011;10469;42.720;23.252;2023-06-26T07:24:47;11.73;;;8.50;;
20619;SDS011;10469;42.720;23.252;2023-06-26T07:27:16;9.55;;;8.57;;
20619;SDS011;10469;42.720;23.252;2023-06-26T07:29:45;12.45;;;8.00;;
20619;SDS011;10469;42.720;23.252;2023-06-26T07:32:11;10.82;;;8.52;;
20619;SDS011;10469;42.720;23.252;2023-06-26T07:34:36;12.10;;;8.13;;
20619;SDS011;10469;42.720;23.252;2023-06-26T07:37:02;12.15;;;7.97;;
20619;SDS011;10469;42.720;23.252;2023-06-26T07:39:28;12.10;;;8.77;;
20619;SDS011;10469;42.720;23.252;2023-06-26T07:41:54;11.82;;;8.25;;
20619;SDS011;10469;42.720;23.252;2023-06-26T07:44:21;15.65;;;8.05;;
20619;SDS011;10469;42.720;23.252;2023-06-26T07:46:47;13.55;;;8.20;;
20619;SDS011;10469;42.720;23.252;2023-06-26T07:49:12;10.00;;;8.13;;
20619;SDS011;10469;42.720;23.252;2023-06-26T07:51:38;8.20;;;7.40;;
20619;SDS011;10469;42.720;23.252;2023-06-26T07:54:03;9.02;;;7.75;;
20619;SDS011;10469;42.720;23.252;2023-06-26T07:56:29;11.38;;;8.25;;
20619;SDS011;10469;42.720;23.252;2023-06-26T07:58:55;9.40;;;7.57;;
20619;SDS011;10469;42.720;23.252;2023-06-26T08:01:23;8.88;;;6.80;;
20619;SDS011;10469;42.720;23.252;2023-06-26T08:03:49;16.25;;;7.03;;
20619;SDS011;10469;42.720;23.252;2023-06-26T08:06:14;9.00;;;7.07;;
20619;SDS011;10469;42.720;23.252;2023-06-26T08:08:40;10.65;;;6.38;;
20619;SDS011;10469;42.720;23.252;2023-06-26T08:11:06;9.30;;;6.50;;
20619;SDS011;10469;42.720;23.252;2023-06-26T08:13:31;11.55;;;6.82;;
20619;SDS011;10469;42.720;23.252;2023-06-26T08:15:56;8.25;;;6.10;;
20619;SDS011;10469;42.720;23.252;2023-06-26T08:18:22;9.23;;;6.00;;
20619;SDS011;10469;42.720;23.252;2023-06-26T08:20:47;7.50;;;6.60;;
20619;SDS011;10469;42.720;23.252;2023-06-26T08:23:18;12.25;;;6.75;;
20619;SDS011;10469;42.720;23.252;2023-06-26T08:25:45;13.38;;;6.38;;
20619;SDS011;10469;42.720;23.252;2023-06-26T08:28:58;11.30;;;6.55;;
20619;SDS011;10469;42.720;23.252;2023-06-26T08:31:24;19.05;;;6.13;;
20619;SDS011;10469;42.720;23.252;2023-06-26T08:33:49;6.80;;;5.57;;
20619;SDS011;10469;42.720;23.252;2023-06-26T08:36:15;9.65;;;6.20;;
20619;SDS011;10469;42.720;23.252;2023-06-26T08:38:40;7.10;;;5.80;;
20619;SDS011;10469;42.720;23.252;2023-06-26T08:41:09;7.50;;;6.68;;
20619;SDS011;10469;42.720;23.252;2023-06-26T08:43:35;7.07;;;5.90;;
20619;SDS011;10469;42.720;23.252;2023-06-26T08:46:01;10.05;;;6.28;;
20619;SDS011;10469;42.720;23.252;2023-06-26T08:48:31;7.43;;;6.18;;
20619;SDS011;10469;42.720;23.252;2023-06-26T08:51:05;10.90;;;6.15;;
20619;SDS011;10469;42.720;23.252;2023-06-26T08:53:50;10.27;;;6.00;;
20619;SDS011;10469;42.720;23.252;2023-06-26T08:56:21;8.10;;;6.50;;
20619;SDS011;10469;42.720;23.252;2023-06-26T08:58:49;12.30;;;6.28;;
20619;SDS011;10469;42.720;23.252;2023-06-26T09:01:14;11.45;;;6.15;;
20619;SDS011;10469;42.720;23.252;2023-06-26T09:03:40;9.30;;;6.43;;
20619;SDS011;10469;42.720;23.252;2023-06-26T09:06:07;10.60;;;5.80;;
20619;SDS011;10469;42.720;23.252;2023-06-26T09:08:32;9.20;;;5.65;;
20619;SDS011;10469;42.720;23.252;2023-06-26T09:10:58;10.95;;;6.70;;
20619;SDS011;10469;42.720;23.252;2023-06-26T09:13:23;14.27;;;5.05;;
20619;SDS011;10469;42.720;23.252;2023-06-26T09:15:49;11.80;;;5.35;;
20619;SDS011;10469;42.720;23.252;2023-06-26T09:18:18;7.28;;;5.97;;
20619;SDS011;10469;42.720;23.252;2023-06-26T09:20:48;7.53;;;5.93;;
20619;SDS011;10469;42.720;23.252;2023-06-26T09:23:13;12.63;;;5.45;;
20619;SDS011;10469;42.720;23.252;2023-06-26T09:25:40;6.47;;;4.97;;
20619;SDS011;10469;42.720;23.252;2023-06-26T09:28:06;8.65;;;5.43;;
20619;SDS011;10469;42.720;23.252;2023-06-26T09:30:33;8.65;;;5.95;;
20619;SDS011;10469;42.720;23.252;2023-06-26T09:33:15;7.40;;;5.40;;
20619;SDS011;10469;42.720;23.252;2023-06-26T09:35:47;9.27;;;6.15;;
20619;SDS011;10469;42.720;23.252;2023-06-26T09:38:13;6.97;;;6.07;;
20619;SDS011;10469;42.720;23.252;2023-06-26T09:40:40;8.43;;;5.93;;
20619;SDS011;10469;42.720;23.252;2023-06-26T09:43:06;7.30;;;5.68;;
20619;SDS011;10469;42.720;23.252;2023-06-26T09:45:33;9.52;;;6.05;;
20619;SDS011;10469;42.720;23.252;2023-06-26T09:48:01;9.32;;;5.95;;
20619;SDS011;10469;42.720;23.252;2023-06-26T09:50:32;8.35;;;5.47;;
20619;SDS011;10469;42.720;23.252;2023-06-26T09:53:12;9.27;;;5.75;;
20619;SDS011;10469;42.720;23.252;2023-06-26T09:55:38;10.18;;;5.82;;
20619;SDS011;10469;42.720;23.252;2023-06-26T09:58:06;6.57;;;5.60;;
20619;SDS011;10469;42.720;23.252;2023-06-26T10:00:31;6.47;;;5.38;;
20619;SDS011;10469;42.720;23.252;2023-06-26T10:03:00;7.20;;;5.88;;
20619;SDS011;10469;42.720;23.252;2023-06-26T10:05:26;6.18;;;5.07;;
20619;SDS011;10469;42.720;23.252;2023-06-26T10:07:52;8.75;;;5.85;;
20619;SDS011;10469;42.720;23.252;2023-06-26T10:10:19;15.50;;;5.50;;
20619;SDS011;10469;42.720;23.252;2023-06-26T10:12:48;8.50;;;6.15;;
20619;SDS011;10469;42.720;23.252;2023-06-26T10:15:15;7.03;;;5.60;;
20619;SDS011;10469;42.720;23.252;2023-06-26T10:17:42;8.45;;;5.95;;
20619;SDS011;10469;42.720;23.252;2023-06-26T10:20:11;11.85;;;6.47;;
20619;SDS011;10469;42.720;23.252;2023-06-26T10:22:44;6.80;;;6.10;;
20619;SDS011;10469;42.720;23.252;2023-06-26T10:25:10;7.50;;;5.80;;
20619;SDS011;10469;42.720;23.252;2023-06-26T10:27:40;9.20;;;6.15;;
20619;SDS011;10469;42.720;23.252;2023-06-26T10:30:09;13.32;;;6.38;;
20619;SDS011;10469;42.720;23.252;2023-06-26T10:32:39;10.68;;;5.38;;
20619;SDS011;10469;42.720;23.252;2023-06-26T10:35:06;8.40;;;6.30;;
20619;SDS011;10469;42.720;23.252;2023-06-26T10:37:45;11.68;;;6.50;;
20619;SDS011;10469;42.720;23.252;2023-06-26T10:40:13;9.77;;;6.45;;
20619;SDS011;10469;42.720;23.252;2023-06-26T10:42:39;7.63;;;6.18;;
20619;SDS011;10469;42.720;23.252;2023-06-26T10:45:15;13.35;;;5.88;;
20619;SDS011;10469;42.720;23.252;2023-06-26T10:47:45;10.88;;;6.55;;
20619;SDS011;10469;42.720;23.252;2023-06-26T10:50:25;9.18;;;7.00;;
20619;SDS011;10469;42.720;23.252;2023-06-26T10:53:13;7.32;;;5.65;;
20619;SDS011;10469;42.720;23.252;2023-06-26T11:04:01;8.65;;;6.68;;
20619;SDS011;10469;42.720;23.252;2023-06-26T11:06:27;15.85;;;8.10;;
20619;SDS011;10469;42.720;23.252;2023-06-26T11:08:55;13.23;;;7.65;;
20619;SDS011;10469;42.720;23.252;2023-06-26T11:14:30;9.32;;;5.80;;
20619;SDS011;10469;42.720;23.252;2023-06-26T11:16:57;20.77;;;6.85;;
20619;SDS011;10469;42.720;23.252;2023-06-26T11:19:23;12.95;;;6.32;;
20619;SDS011;10469;42.720;23.252;2023-06-26T11:21:52;17.13;;;6.18;;
20619;SDS011;10469;42.720;23.252;2023-06-26T11:24:23;12.77;;;6.05;;
20619;SDS011;10469;42.720;23.252;2023-06-26T11:26:49;8.02;;;5.97;;
20619;SDS011;10469;42.720;23.252;2023-06-26T11:29:14;8.57;;;5.50;;
20619;SDS011;10469;42.720;23.252;2023-06-26T11:31:40;7.57;;;6.15;;
20619;SDS011;10469;42.720;23.252;2023-06-26T11:34:10;18.55;;;6.93;;
20619;SDS011;10469;42.720;23.252;2023-06-26T11:36:38;11.75;;;6.07;;
20619;SDS011;10469;42.720;23.252;2023-06-26T11:39:05;9.00;;;5.80;;
20619;SDS011;10469;42.720;23.252;2023-06-26T11:41:32;8.63;;;6.00;;
20619;SDS011;10469;42.720;23.252;2023-06-26T11:44:02;6.70;;;6.03;;
20619;SDS011;10469;42.720;23.252;2023-06-26T11:46:33;21.33;;;7.00;;
20619;SDS011;10469;42.720;23.252;2023-06-26T11:49:02;15.18;;;7.40;;
20619;SDS011;10469;42.720;23.252;2023-06-26T11:51:32;11.38;;;6.20;;
20619;SDS011;10469;42.720;23.252;2023-06-26T11:54:00;12.73;;;6.53;;
20619;SDS011;10469;42.720;23.252;2023-06-26T11:56:28;15.18;;;6.82;;
20619;SDS011;10469;42.720;23.252;2023-06-26T12:04:01;7.95;;;6.20;;
20619;SDS011;10469;42.720;23.252;2023-06-26T12:06:35;10.50;;;6.55;;
20619;SDS011;10469;42.720;23.252;2023-06-26T12:09:03;11.80;;;5.90;;
20619;SDS011;10469;42.720;23.252;2023-06-26T12:11:30;11.48;;;6.60;;
20619;SDS011;10469;42.720;23.252;2023-06-26T12:13:58;7.63;;;6.05;;
20619;SDS011;10469;42.720;23.252;2023-06-26T12:16:24;9.00;;;5.93;;
20619;SDS011;10469;42.720;23.252;2023-06-26T12:18:50;19.25;;;6.75;;
20619;SDS011;10469;42.720;23.252;2023-06-26T12:24:06;13.52;;;6.10;;
20619;SDS011;10469;42.720;23.252;2023-06-26T12:26:37;11.65;;;7.78;;
20619;SDS011;10469;42.720;23.252;2023-06-26T12:29:07;10.13;;;6.85;;
20619;SDS011;10469;42.720;23.252;2023-06-26T12:31:34;9.38;;;6.68;;
20619;SDS011;10469;42.720;23.252;2023-06-26T12:34:01;8.45;;;6.95;;
20619;SDS011;10469;42.720;23.252;2023-06-26T12:36:27;7.95;;;6.25;;
20619;SDS011;10469;42.720;23.252;2023-06-26T12:38:53;10.07;;;6.32;;
20619;SDS011;10469;42.720;23.252;2023-06-26T12:41:19;12.20;;;7.03;;
20619;SDS011;10469;42.720;23.252;2023-06-26T12:43:45;11.10;;;7.18;;
20619;SDS011;10469;42.720;23.252;2023-06-26T12:46:11;11.05;;;7.20;;
20619;SDS011;10469;42.720;23.252;2023-06-26T12:51:12;9.50;;;6.22;;
20619;SDS011;10469;42.720;23.252;2023-06-26T12:53:39;12.50;;;6.88;;
20619;SDS011;10469;42.720;23.252;2023-06-26T12:56:06;13.77;;;6.43;;
20619;SDS011;10469;42.720;23.252;2023-06-26T12:58:33;8.13;;;6.70;;
20619;SDS011;10469;42.720;23.252;2023-06-26T13:00:58;12.48;;;7.30;;
20619;SDS011;10469;42.720;23.252;2023-06-26T13:03:24;17.33;;;8.40;;
20619;SDS011;10469;42.720;23.252;2023-06-26T13:05:50;8.98;;;6.32;;
20619;SDS011;10469;42.720;23.252;2023-06-26T13:08:16;8.90;;;6.90;;
20619;SDS011;10469;42.720;23.252;2023-06-26T13:10:43;7.95;;;6.10;;
20619;SDS011;10469;42.720;23.252;2023-06-26T13:13:10;10.82;;;6.45;;
20619;SDS011;10469;42.720;23.252;2023-06-26T13:15:36;14.73;;;6.30;;
20619;SDS011;10469;42.720;23.252;2023-06-26T13:18:01;9.07;;;6.22;;
20619;SDS011;10469;42.720;23.252;2023-06-26T13:20:27;14.23;;;6.40;;
20619;SDS011;10469;42.720;23.252;2023-06-26T13:22:56;12.55;;;6.63;;
20619;SDS011;10469;42.720;23.252;2023-06-26T13:25:21;11.27;;;6.32;;
20619;SDS011;10469;42.720;23.252;2023-06-26T13:27:47;14.82;;;6.30;;
20619;SDS011;10469;42.720;23.252;2023-06-26T13:30:14;15.48;;;6.03;;
20619;SDS011;10469;42.720;23.252;2023-06-26T13:32:40;12.35;;;6.00;;
20619;SDS011;10469;42.720;23.252;2023-06-26T13:35:06;9.65;;;6.07;;
20619;SDS011;10469;42.720;23.252;2023-06-26T13:37:32;6.95;;;6.25;;
20619;SDS011;10469;42.720;23.252;2023-06-26T13:39:59;9.68;;;5.90;;
20619;SDS011;10469;42.720;23.252;2023-06-26T13:42:26;9.18;;;6.10;;
20619;SDS011;10469;42.720;23.252;2023-06-26T13:44:53;15.93;;;7.05;;
20619;SDS011;10469;42.720;23.252;2023-06-26T13:47:18;10.82;;;6.68;;
20619;SDS011;10469;42.720;23.252;2023-06-26T13:49:44;8.77;;;7.50;;
20619;SDS011;10469;42.720;23.252;2023-06-26T13:52:09;9.80;;;6.95;;
20619;SDS011;10469;42.720;23.252;2023-06-26T13:54:35;9.55;;;7.55;;
20619;SDS011;10469;42.720;23.252;2023-06-26T13:57:04;9.40;;;6.97;;
20619;SDS011;10469;42.720;23.252;2023-06-26T13:59:30;10.75;;;8.02;;
20619;SDS011;10469;42.720;23.252;2023-06-26T14:01:56;11.30;;;7.32;;
20619;SDS011;10469;42.720;23.252;2023-06-26T14:04:22;12.05;;;7.60;;
20619;SDS011;10469;42.720;23.252;2023-06-26T14:06:47;11.02;;;8.30;;
20619;SDS011;10469;42.720;23.252;2023-06-26T14:09:13;13.57;;;7.68;;
20619;SDS011;10469;42.720;23.252;2023-06-26T14:11:38;15.23;;;7.18;;
20619;SDS011;10469;42.720;23.252;2023-06-26T14:14:04;12.98;;;6.75;;
20619;SDS011;10469;42.720;23.252;2023-06-26T14:16:29;9.55;;;6.53;;
20619;SDS011;10469;42.720;23.252;2023-06-26T14:18:55;11.13;;;6.47;;
20619;SDS011;10469;42.720;23.252;2023-06-26T14:21:21;11.82;;;6.43;;
20619;SDS011;10469;42.720;23.252;2023-06-26T14:23:49;11.82;;;6.57;;
20619;SDS011;10469;42.720;23.252;2023-06-26T14:26:15;9.98;;;6.07;;
20619;SDS011;10469;42.720;23.252;2023-06-26T14:28:40;8.20;;;5.95;;
20619;SDS011;10469;42.720;23.252;2023-06-26T14:31:06;7.00;;;6.07;;
20619;SDS011;10469;42.720;23.252;2023-06-26T14:33:32;10.60;;;6.32;;
20619;SDS011;10469;42.720;23.252;2023-06-26T14:35:57;12.10;;;6.45;;
20619;SDS011;10469;42.720;23.252;2023-06-26T14:38:23;6.38;;;5.50;;
20619;SDS011;10469;42.720;23.252;2023-06-26T14:40:48;8.70;;;6.00;;
20619;SDS011;10469;42.720;23.252;2023-06-26T14:43:14;8.80;;;6.50;;